createdAt,value
2017-06-28T00:00:01.019Z,58.11
2017-06-28T00:00:41.479Z,58.11
2017-06-28T00:01:21.933Z,58.11
2017-06-28T00:02:02.390Z,58.2
2017-06-28T00:02:42.852Z,58.01
2017-06-28T00:03:23.308Z,57.71
2017-06-28T00:04:03.763Z,57.91
2017-06-28T00:04:44.241Z,58.01
2017-06-28T00:05:24.697Z,58.11
2017-06-28T00:06:05.153Z,57.91
2017-06-28T00:06:45.611Z,57.91
2017-06-28T00:07:26.068Z,57.91
2017-06-28T00:08:06.531Z,58.01
2017-06-28T00:08:46.976Z,57.91
2017-06-28T00:09:27.437Z,57.91
2017-06-28T00:10:07.899Z,57.71
2017-06-28T00:10:48.347Z,57.91
2017-06-28T00:11:28.808Z,57.91
2017-06-28T00:12:09.268Z,57.91
2017-06-28T00:12:49.727Z,57.81
2017-06-28T00:13:30.188Z,58.11
2017-06-28T00:14:10.651Z,58.3
2017-06-28T00:14:51.111Z,58.2
2017-06-28T00:15:31.564Z,58.3
2017-06-28T00:16:12.014Z,58.11
2017-06-28T00:16:52.626Z,57.81
2017-06-28T00:17:33.085Z,58.11
2017-06-28T00:18:13.545Z,57.81
2017-06-28T00:18:53.998Z,58.11
2017-06-28T00:19:34.478Z,58.11
2017-06-28T00:20:15.007Z,57.71
2017-06-28T00:20:55.471Z,57.91
2017-06-28T00:21:35.928Z,57.81
2017-06-28T00:22:16.383Z,57.81
2017-06-28T00:22:56.839Z,58.11
2017-06-28T00:23:37.281Z,57.81
2017-06-28T00:24:17.733Z,58.11
2017-06-28T00:24:58.189Z,58.01
2017-06-28T00:25:38.647Z,58.01
2017-06-28T00:26:19.113Z,58.01
2017-06-28T00:26:59.578Z,58.01
2017-06-28T00:27:40.030Z,57.62
2017-06-28T00:28:20.489Z,58.01
2017-06-28T00:29:00.946Z,58.01
2017-06-28T00:30:53.795Z,57.62
2017-06-28T00:31:34.274Z,58.11
2017-06-28T00:32:14.729Z,58.01
2017-06-28T00:32:55.184Z,58.01
2017-06-28T00:33:35.649Z,58.01
2017-06-28T00:34:16.111Z,57.62
2017-06-28T00:34:56.565Z,57.91
2017-06-28T00:35:37.027Z,57.71
2017-06-28T00:36:17.487Z,58.01
2017-06-28T00:36:57.945Z,58.11
2017-06-28T00:37:38.397Z,57.91
2017-06-28T00:38:18.855Z,57.91
2017-06-28T00:38:59.313Z,58.11
2017-06-28T00:39:39.797Z,58.01
2017-06-28T00:40:20.241Z,57.81
2017-06-28T00:41:00.691Z,58.01
2017-06-28T00:41:41.148Z,58.2
2017-06-28T00:42:21.608Z,58.3
2017-06-28T00:43:02.050Z,58.17
2017-06-28T00:43:42.497Z,58.01
2017-06-28T00:44:22.956Z,58.01
2017-06-28T00:45:03.421Z,57.98
2017-06-28T00:45:43.880Z,57.91
2017-06-28T00:46:24.358Z,58.07
2017-06-28T00:47:04.818Z,58.07
2017-06-28T00:49:02.497Z,58.01
2017-06-28T00:49:42.950Z,58.01
2017-06-28T00:50:23.415Z,57.91
2017-06-28T00:51:03.918Z,58.01
2017-06-28T00:51:44.358Z,58.11
2017-06-28T00:52:24.813Z,57.81
2017-06-28T00:53:05.264Z,58.11
2017-06-28T00:53:45.724Z,57.91
2017-06-28T00:54:26.192Z,57.91
2017-06-28T00:55:06.647Z,57.91
2017-06-28T00:55:47.107Z,58.2
2017-06-28T00:56:27.569Z,58.2
2017-06-28T00:57:08.027Z,57.81
2017-06-28T00:57:48.483Z,57.71
2017-06-28T00:58:28.926Z,57.81
2017-06-28T00:59:09.385Z,58.01
2017-06-28T00:59:49.848Z,58.01
2017-06-28T01:00:30.307Z,58.11
2017-06-28T01:01:10.764Z,58.11
2017-06-28T01:01:51.223Z,58.01
2017-06-28T01:02:31.679Z,58.01
2017-06-28T01:03:12.139Z,57.71
2017-06-28T01:03:52.586Z,58.11
2017-06-28T01:04:33.046Z,57.62
2017-06-28T01:05:13.504Z,58.01
2017-06-28T01:05:53.975Z,58.11
2017-06-28T01:06:34.430Z,57.71
2017-06-28T01:07:14.893Z,57.62
2017-06-28T01:07:55.349Z,57.62
2017-06-28T01:08:35.805Z,58.01
2017-06-28T01:09:16.264Z,57.94
2017-06-28T01:09:56.725Z,57.84
2017-06-28T01:10:37.183Z,57.71
2017-06-28T01:11:17.650Z,57.81
2017-06-28T01:11:58.111Z,57.81
2017-06-28T01:12:38.570Z,57.81
2017-06-28T01:13:19.027Z,57.71
2017-06-28T01:13:59.472Z,57.84
2017-06-28T01:14:39.930Z,57.75
2017-06-28T01:15:20.385Z,57.62
2017-06-28T01:16:00.843Z,57.84
2017-06-28T01:16:41.282Z,57.71
2017-06-28T01:17:21.764Z,57.65
2017-06-28T01:18:02.186Z,57.71
2017-06-28T01:18:42.648Z,57.62
2017-06-28T01:19:23.104Z,57.71
2017-06-28T01:20:03.567Z,57.75
2017-06-28T01:20:44.030Z,57.75
2017-06-28T01:21:24.495Z,57.75
2017-06-28T01:22:04.952Z,57.81
2017-06-28T01:22:45.404Z,57.71
2017-06-28T01:23:25.876Z,57.65
2017-06-28T01:24:06.337Z,57.91
2017-06-28T01:24:46.813Z,57.71
2017-06-28T01:25:27.274Z,57.91
2017-06-28T01:26:07.735Z,57.62
2017-06-28T01:26:48.188Z,57.81
2017-06-28T01:27:28.648Z,57.71
2017-06-28T01:28:09.147Z,57.75
2017-06-28T01:28:49.606Z,57.71
2017-06-28T01:29:30.075Z,57.91
2017-06-28T01:30:10.531Z,57.84
2017-06-28T01:30:50.989Z,57.91
2017-06-28T01:31:31.439Z,57.75
2017-06-28T01:32:11.897Z,57.94
2017-06-28T01:32:52.368Z,57.75
2017-06-28T01:33:32.827Z,57.84
2017-06-28T01:34:13.297Z,57.84
2017-06-28T01:34:53.760Z,57.71
2017-06-28T01:35:34.218Z,57.71
2017-06-28T01:36:14.680Z,57.71
2017-06-28T01:36:55.139Z,57.71
2017-06-28T01:37:35.602Z,57.71
2017-06-28T01:38:16.054Z,57.81
2017-06-28T01:38:56.510Z,57.71
2017-06-28T01:39:36.973Z,57.62
2017-06-28T01:40:17.429Z,57.71
2017-06-28T01:40:57.889Z,57.71
2017-06-28T01:41:38.349Z,57.62
2017-06-28T01:42:18.809Z,57.81
2017-06-28T01:42:59.266Z,57.71
2017-06-28T01:43:39.730Z,57.81
2017-06-28T01:44:20.187Z,57.62
2017-06-28T01:45:00.644Z,57.71
2017-06-28T01:45:41.092Z,57.62
2017-06-28T01:46:21.554Z,57.81
2017-06-28T01:47:02.013Z,57.81
2017-06-28T01:47:42.463Z,57.62
2017-06-28T01:48:22.925Z,57.81
2017-06-28T01:49:03.383Z,58.01
2017-06-28T01:49:43.842Z,58.01
2017-06-28T01:50:24.320Z,58.01
2017-06-28T01:51:04.782Z,58.01
2017-06-28T01:51:45.243Z,57.91
2017-06-28T01:52:25.704Z,58.01
2017-06-28T01:53:06.165Z,58.39
2017-06-28T01:53:46.627Z,57.91
2017-06-28T01:54:27.080Z,57.91
2017-06-28T01:55:07.557Z,58.01
2017-06-28T01:55:48.009Z,57.81
2017-06-28T01:56:28.469Z,57.81
2017-06-28T01:57:08.928Z,57.81
2017-06-28T01:57:49.389Z,58.01
2017-06-28T01:58:29.846Z,58.01
2017-06-28T01:59:10.293Z,58.01
2017-06-28T01:59:50.742Z,57.91
2017-06-28T02:00:31.201Z,58.39
2017-06-28T02:01:11.663Z,58.39
2017-06-28T02:01:52.129Z,58.2
2017-06-28T02:02:32.584Z,58.11
2017-06-28T02:03:13.044Z,57.71
2017-06-28T02:03:53.501Z,57.81
2017-06-28T02:04:33.961Z,57.71
2017-06-28T02:05:14.420Z,58.01
2017-06-28T02:05:54.871Z,57.91
2017-06-28T02:06:35.330Z,57.91
2017-06-28T02:07:15.783Z,58.01
2017-06-28T02:07:56.244Z,58.01
2017-06-28T02:08:36.695Z,57.81
2017-06-28T02:09:17.157Z,57.71
2017-06-28T02:09:57.617Z,58.11
2017-06-28T02:10:38.074Z,57.62
2017-06-28T02:11:18.534Z,58.01
2017-06-28T02:11:58.994Z,57.71
2017-06-28T02:12:39.452Z,57.81
2017-06-28T02:13:19.910Z,57.81
2017-06-28T02:14:00.373Z,57.81
2017-06-28T02:14:40.828Z,57.81
2017-06-28T02:15:21.284Z,57.91
2017-06-28T02:16:01.744Z,57.75
2017-06-28T02:16:42.191Z,57.71
2017-06-28T02:17:22.648Z,57.81
2017-06-28T02:18:03.112Z,57.81
2017-06-28T02:18:43.543Z,58.11
2017-06-28T02:19:24.000Z,57.81
2017-06-28T02:20:04.456Z,57.71
2017-06-28T02:20:44.908Z,57.62
2017-06-28T02:21:25.378Z,58.11
2017-06-28T02:22:05.838Z,58.01
2017-06-28T02:22:46.290Z,57.71
2017-06-28T02:23:26.739Z,58.01
2017-06-28T02:24:07.194Z,58.01
2017-06-28T02:24:47.659Z,57.62
2017-06-28T02:25:28.099Z,57.81
2017-06-28T02:26:08.557Z,57.81
2017-06-28T02:26:49.007Z,57.62
2017-06-28T02:27:29.452Z,57.81
2017-06-28T02:28:09.903Z,57.71
2017-06-28T02:28:50.371Z,57.71
2017-06-28T02:29:30.829Z,57.71
2017-06-28T02:30:11.287Z,57.43
2017-06-28T02:30:51.745Z,57.33
2017-06-28T02:31:32.202Z,57.53
2017-06-28T02:32:12.666Z,57.53
2017-06-28T02:32:53.119Z,57.62
2017-06-28T02:33:33.580Z,57.43
2017-06-28T02:34:14.037Z,57.43
2017-06-28T02:34:54.501Z,57.62
2017-06-28T02:35:34.963Z,57.75
2017-06-28T02:36:15.418Z,57.65
2017-06-28T02:36:55.887Z,57.71
2017-06-28T02:37:36.343Z,57.43
2017-06-28T02:38:16.798Z,57.62
2017-06-28T02:38:57.259Z,57.62
2017-06-28T02:39:37.715Z,57.91
2017-06-28T02:40:18.174Z,58.11
2017-06-28T02:40:58.636Z,57.62
2017-06-28T02:41:39.091Z,57.81
2017-06-28T02:42:19.556Z,57.79
2017-06-28T02:43:00.020Z,57.88
2017-06-28T02:43:40.506Z,57.81
2017-06-28T02:44:20.929Z,57.98
2017-06-28T02:45:01.390Z,57.98
2017-06-28T02:45:41.849Z,57.79
2017-06-28T02:46:22.310Z,58.17
2017-06-28T02:47:02.770Z,58.17
2017-06-28T02:47:43.226Z,57.88
2017-06-28T02:48:23.688Z,58.47
2017-06-28T02:49:04.166Z,58.65
2017-06-28T02:49:44.630Z,58.47
2017-06-28T02:50:25.089Z,58.56
2017-06-28T02:51:05.542Z,58.47
2017-06-28T02:51:46.003Z,58.37
2017-06-28T02:52:26.448Z,58.47
2017-06-28T02:53:06.911Z,58.47
2017-06-28T02:53:47.370Z,58.47
2017-06-28T02:54:27.827Z,58.47
2017-06-28T02:55:08.290Z,58.47
2017-06-28T02:55:48.759Z,58.37
2017-06-28T02:56:29.217Z,58.37
2017-06-28T02:57:09.665Z,58.56
2017-06-28T02:57:50.118Z,57.98
2017-06-28T02:58:30.577Z,57.88
2017-06-28T02:59:11.035Z,57.98
2017-06-28T02:59:51.483Z,57.79
2017-06-28T03:00:31.933Z,57.98
2017-06-28T03:01:12.398Z,57.79
2017-06-28T03:01:52.864Z,58.17
2017-06-28T03:02:33.326Z,58.27
2017-06-28T03:03:13.802Z,58.07
2017-06-28T03:03:54.231Z,58.07
2017-06-28T03:04:34.708Z,57.81
2017-06-28T03:05:15.164Z,57.98
2017-06-28T03:05:55.619Z,57.91
2017-06-28T03:06:36.074Z,57.81
2017-06-28T03:07:16.518Z,57.79
2017-06-28T03:07:56.980Z,57.81
2017-06-28T03:08:37.435Z,57.88
2017-06-28T03:09:17.880Z,57.88
2017-06-28T03:09:58.336Z,58.01
2017-06-28T03:10:38.798Z,57.79
2017-06-28T03:11:19.255Z,57.81
2017-06-28T03:11:59.719Z,57.79
2017-06-28T03:12:40.184Z,58.01
2017-06-28T03:13:20.642Z,58.11
2017-06-28T03:14:01.478Z,57.88
2017-06-28T03:14:41.938Z,57.98
2017-06-28T03:15:22.396Z,57.69
2017-06-28T03:16:02.838Z,58.2
2017-06-28T03:16:43.292Z,58.07
2017-06-28T03:17:23.764Z,58.17
2017-06-28T03:18:04.221Z,58.37
2017-06-28T03:18:44.682Z,58.17
2017-06-28T03:19:25.143Z,58.17
2017-06-28T03:20:05.615Z,57.98
2017-06-28T03:20:46.079Z,57.98
2017-06-28T03:21:26.513Z,57.98
2017-06-28T03:22:06.968Z,57.98
2017-06-28T03:22:47.425Z,57.98
2017-06-28T03:23:27.881Z,57.98
2017-06-28T03:24:08.345Z,58.07
2017-06-28T03:24:48.794Z,58.11
2017-06-28T03:25:29.270Z,58.17
2017-06-28T03:26:09.692Z,58.07
2017-06-28T03:26:50.137Z,58.2
2017-06-28T03:27:30.588Z,57.91
2017-06-28T03:28:11.033Z,57.98
2017-06-28T03:28:51.507Z,57.88
2017-06-28T03:29:31.958Z,58.01
2017-06-28T03:30:12.417Z,57.88
2017-06-28T03:30:52.873Z,58.01
2017-06-28T03:31:33.334Z,57.98
2017-06-28T03:32:13.795Z,57.98
2017-06-28T03:32:54.239Z,58.01
2017-06-28T03:33:34.758Z,57.98
2017-06-28T03:34:15.220Z,57.88
2017-06-28T03:34:55.674Z,58.01
2017-06-28T03:35:36.126Z,57.88
2017-06-28T03:36:16.587Z,58.07
2017-06-28T03:36:57.043Z,58.11
2017-06-28T03:37:37.498Z,58.11
2017-06-28T03:38:17.952Z,58.11
2017-06-28T03:38:58.406Z,57.88
2017-06-28T03:39:38.868Z,58.01
2017-06-28T03:40:19.326Z,57.91
2017-06-28T03:40:59.790Z,57.91
2017-06-28T03:41:40.253Z,57.71
2017-06-28T03:42:20.709Z,58.01
2017-06-28T03:43:01.166Z,58.2
2017-06-28T03:43:41.659Z,58.11
2017-06-28T03:44:22.116Z,58.11
2017-06-28T03:45:02.577Z,58.3
2017-06-28T03:45:43.036Z,58.01
2017-06-28T03:46:23.495Z,57.81
2017-06-28T03:47:03.957Z,57.81
2017-06-28T03:47:44.415Z,58.49
2017-06-28T03:48:24.873Z,58.59
2017-06-28T03:49:05.388Z,58.49
2017-06-28T03:49:45.852Z,58.39
2017-06-28T03:50:26.310Z,58.49
2017-06-28T03:51:06.762Z,58.59
2017-06-28T03:51:47.227Z,58.69
2017-06-28T03:52:27.740Z,58.59
2017-06-28T03:53:08.213Z,58.59
2017-06-28T03:53:48.679Z,58.49
2017-06-28T03:54:29.139Z,58.69
2017-06-28T03:55:09.599Z,58.98
2017-06-28T03:55:50.064Z,58.49
2017-06-28T03:56:30.525Z,58.69
2017-06-28T03:57:10.985Z,58.98
2017-06-28T03:57:51.438Z,58.98
2017-06-28T03:58:31.898Z,59.17
2017-06-28T03:59:12.357Z,59.36
2017-06-28T03:59:52.812Z,59.36
2017-06-28T04:00:33.271Z,59.36
2017-06-28T04:01:13.729Z,59.27
2017-06-28T04:01:54.182Z,59.56
2017-06-28T04:02:34.660Z,59.17
2017-06-28T04:03:15.121Z,58.98
2017-06-28T04:03:55.589Z,59.27
2017-06-28T04:04:36.045Z,59.36
2017-06-28T04:05:16.496Z,59.46
2017-06-28T04:05:56.954Z,59.36
2017-06-28T04:06:37.413Z,59.36
2017-06-28T04:07:17.871Z,59.2
2017-06-28T04:07:58.332Z,59.27
2017-06-28T04:08:38.794Z,59.2
2017-06-28T04:09:19.255Z,59.39
2017-06-28T04:09:59.711Z,59.66
2017-06-28T04:10:40.170Z,59.17
2017-06-28T04:11:20.632Z,59.39
2017-06-28T04:12:01.092Z,59.59
2017-06-28T04:12:41.550Z,59.3
2017-06-28T04:13:22.027Z,59.49
2017-06-28T04:14:02.486Z,59.2
2017-06-28T04:14:42.951Z,59.3
2017-06-28T04:15:23.421Z,59.3
2017-06-28T04:16:03.873Z,59.1
2017-06-28T04:16:44.328Z,59.1
2017-06-28T04:17:24.789Z,59.39
2017-06-28T04:18:05.245Z,59
2017-06-28T04:18:45.707Z,59
2017-06-28T04:19:26.170Z,58.91
2017-06-28T04:20:06.627Z,59.2
2017-06-28T04:20:47.083Z,59.3
2017-06-28T04:21:27.542Z,59.39
2017-06-28T04:22:08.011Z,59.2
2017-06-28T04:22:48.467Z,59.39
2017-06-28T04:23:28.924Z,59.2
2017-06-28T04:24:09.437Z,59.3
2017-06-28T04:24:49.895Z,59.2
2017-06-28T04:25:30.352Z,59.1
2017-06-28T04:26:10.815Z,59
2017-06-28T04:26:51.287Z,59.1
2017-06-28T04:27:31.746Z,58.91
2017-06-28T04:28:12.202Z,58.33
2017-06-28T04:28:52.662Z,58.52
2017-06-28T04:29:33.122Z,58.52
2017-06-28T04:30:13.582Z,58.72
2017-06-28T04:30:54.043Z,58.91
2017-06-28T04:31:34.497Z,58.62
2017-06-28T04:32:14.955Z,58.72
2017-06-28T04:32:55.407Z,58.62
2017-06-28T04:33:35.869Z,59
2017-06-28T04:34:16.334Z,58.52
2017-06-28T04:34:56.798Z,58.42
2017-06-28T04:35:37.254Z,58.23
2017-06-28T04:36:17.716Z,58.42
2017-06-28T04:36:58.181Z,58.42
2017-06-28T04:37:38.644Z,58.42
2017-06-28T04:38:19.108Z,58.52
2017-06-28T04:38:59.571Z,58.52
2017-06-28T04:39:40.030Z,58.33
2017-06-28T04:40:20.487Z,57.94
2017-06-28T04:41:00.945Z,58.04
2017-06-28T04:41:41.405Z,58.04
2017-06-28T04:42:21.865Z,57.94
2017-06-28T04:43:02.328Z,58.26
2017-06-28T04:43:42.787Z,58.04
2017-06-28T04:44:23.246Z,58.14
2017-06-28T04:45:03.741Z,57.94
2017-06-28T04:45:44.175Z,58.06
2017-06-28T04:47:57.105Z,57.84
2017-06-28T04:48:37.541Z,58.04
2017-06-28T04:49:18.001Z,58.06
2017-06-28T04:49:58.461Z,58.23
2017-06-28T04:50:38.903Z,58.16
2017-06-28T04:51:19.360Z,57.97
2017-06-28T04:51:59.843Z,58.16
2017-06-28T04:52:40.279Z,58.06
2017-06-28T04:53:20.733Z,57.68
2017-06-28T04:54:01.200Z,58.16
2017-06-28T04:54:41.661Z,57.75
2017-06-28T04:55:22.120Z,57.78
2017-06-28T04:56:02.573Z,57.97
2017-06-28T04:56:43.027Z,57.78
2017-06-28T04:57:23.479Z,57.68
2017-06-28T04:58:03.936Z,57.48
2017-06-28T04:58:44.391Z,57.58
2017-06-28T04:59:24.853Z,57.58
2017-06-28T05:00:05.305Z,57.78
2017-06-28T05:00:45.770Z,57.68
2017-06-28T05:01:26.228Z,57.58
2017-06-28T05:02:06.683Z,57.78
2017-06-28T05:02:47.141Z,57.87
2017-06-28T05:03:27.597Z,57.78
2017-06-28T05:04:08.054Z,58.06
2017-06-28T05:04:48.514Z,57.58
2017-06-28T05:05:28.967Z,57.29
2017-06-28T05:06:09.439Z,57.68
2017-06-28T05:06:49.897Z,57.48
2017-06-28T05:07:30.356Z,57.58
2017-06-28T05:08:10.813Z,57.48
2017-06-28T05:08:51.271Z,57.39
2017-06-28T05:09:31.717Z,57.09
2017-06-28T05:10:12.174Z,56.9
2017-06-28T05:10:52.630Z,57.07
2017-06-28T05:11:33.088Z,57.09
2017-06-28T05:12:13.558Z,57
2017-06-28T05:12:54.016Z,56.9
2017-06-28T05:13:34.476Z,57.29
2017-06-28T05:14:14.937Z,57.17
2017-06-28T05:14:55.393Z,57.19
2017-06-28T05:15:35.850Z,57
2017-06-28T05:16:16.307Z,57.36
2017-06-28T05:16:56.765Z,57.39
2017-06-28T05:17:37.227Z,57.39
2017-06-28T05:18:17.689Z,57.45
2017-06-28T05:18:58.158Z,57.29
2017-06-28T05:19:38.615Z,56.9
2017-06-28T05:20:19.074Z,57.19
2017-06-28T05:20:59.542Z,57.09
2017-06-28T05:21:39.998Z,57.07
2017-06-28T05:22:20.458Z,57.09
2017-06-28T05:23:00.915Z,56.9
2017-06-28T05:23:41.381Z,57
2017-06-28T05:24:21.833Z,57.19
2017-06-28T05:25:02.291Z,57.19
2017-06-28T05:25:42.749Z,57
2017-06-28T05:26:23.213Z,57
2017-06-28T05:27:03.665Z,57
2017-06-28T05:27:44.127Z,57.19
2017-06-28T05:28:24.593Z,57
2017-06-28T05:29:05.086Z,57.19
2017-06-28T05:29:45.546Z,57.09
2017-06-28T05:30:26.004Z,57.39
2017-06-28T05:31:06.462Z,57.39
2017-06-28T05:31:46.922Z,57.29
2017-06-28T05:32:27.383Z,57.19
2017-06-28T05:33:07.849Z,56.77
2017-06-28T05:33:48.306Z,56.61
2017-06-28T05:34:28.759Z,56.81
2017-06-28T05:35:09.221Z,56.81
2017-06-28T05:35:49.678Z,56.61
2017-06-28T05:36:30.136Z,56.61
2017-06-28T05:37:10.591Z,56.61
2017-06-28T05:37:51.049Z,56.71
2017-06-28T05:38:31.513Z,56.77
2017-06-28T05:39:12.010Z,56.61
2017-06-28T05:39:52.472Z,56.97
2017-06-28T05:40:32.940Z,56.81
2017-06-28T05:41:13.402Z,56.77
2017-06-28T05:41:53.857Z,57
2017-06-28T05:42:34.309Z,56.71
2017-06-28T05:43:14.767Z,56.9
2017-06-28T05:43:55.231Z,56.81
2017-06-28T05:44:35.693Z,56.61
2017-06-28T05:45:16.149Z,56.61
2017-06-28T05:45:56.616Z,56.81
2017-06-28T05:46:37.081Z,56.81
2017-06-28T05:47:17.532Z,56.81
2017-06-28T05:47:57.990Z,56.68
2017-06-28T05:48:38.446Z,56.71
2017-06-28T05:49:18.948Z,56.61
2017-06-28T05:49:59.408Z,56.59
2017-06-28T05:50:39.868Z,56.51
2017-06-28T05:51:20.326Z,56.49
2017-06-28T05:52:00.785Z,56.51
2017-06-28T05:52:41.241Z,56.51
2017-06-28T05:53:21.698Z,56.9
2017-06-28T05:54:02.153Z,56.71
2017-06-28T05:54:42.614Z,56.81
2017-06-28T05:55:23.082Z,56.71
2017-06-28T05:56:03.528Z,56.61
2017-06-28T05:56:43.981Z,56.61
2017-06-28T05:57:24.449Z,56.71
2017-06-28T05:58:04.907Z,56.61
2017-06-28T05:58:45.361Z,56.61
2017-06-28T05:59:25.818Z,56.61
2017-06-28T06:00:06.280Z,56.61
2017-06-28T06:00:46.742Z,56.13
2017-06-28T06:01:27.201Z,56.32
2017-06-28T06:02:07.652Z,56.41
2017-06-28T06:02:48.107Z,56.13
2017-06-28T06:03:28.891Z,56.13
2017-06-28T06:04:09.348Z,56.13
2017-06-28T06:04:49.808Z,56.41
2017-06-28T06:05:30.266Z,56.23
2017-06-28T06:06:10.725Z,56.41
2017-06-28T06:06:51.183Z,56.23
2017-06-28T06:07:31.671Z,56.32
2017-06-28T06:08:12.104Z,56.23
2017-06-28T06:08:52.567Z,56.23
2017-06-28T06:09:33.024Z,56.51
2017-06-28T06:10:13.476Z,56.49
2017-06-28T06:10:53.937Z,56.51
2017-06-28T06:11:34.402Z,56.61
2017-06-28T06:12:14.850Z,56.51
2017-06-28T06:12:55.308Z,56.61
2017-06-28T06:13:35.769Z,56.49
2017-06-28T06:14:16.221Z,56.41
2017-06-28T06:14:56.692Z,56.39
2017-06-28T06:15:37.149Z,56.41
2017-06-28T06:16:17.608Z,56.39
2017-06-28T06:16:58.063Z,56.71
2017-06-28T06:17:38.522Z,56.51
2017-06-28T06:18:18.977Z,56.51
2017-06-28T06:18:59.442Z,56.59
2017-06-28T06:19:39.894Z,56.61
2017-06-28T06:20:20.354Z,56.51
2017-06-28T06:21:00.815Z,56.51
2017-06-28T06:21:41.259Z,56.41
2017-06-28T06:22:21.724Z,56.41
2017-06-28T06:23:02.192Z,56.29
2017-06-28T06:23:42.658Z,56.41
2017-06-28T06:24:23.114Z,56.23
2017-06-28T06:25:03.569Z,56.32
2017-06-28T06:25:44.026Z,56.51
2017-06-28T06:26:24.484Z,56.51
2017-06-28T06:27:04.947Z,56.32
2017-06-28T06:27:45.405Z,56.51
2017-06-28T06:28:25.866Z,56.32
2017-06-28T06:29:06.326Z,56.51
2017-06-28T06:29:46.787Z,56.23
2017-06-28T06:30:27.248Z,56.51
2017-06-28T06:31:07.713Z,56.23
2017-06-28T06:31:48.168Z,56.51
2017-06-28T06:32:28.629Z,56.23
2017-06-28T06:33:09.092Z,56.51
2017-06-28T06:33:49.545Z,56.13
2017-06-28T06:34:30.004Z,56.2
2017-06-28T06:35:10.463Z,56.13
2017-06-28T06:35:50.924Z,56.32
2017-06-28T06:36:31.380Z,56.23
2017-06-28T06:37:11.837Z,56.39
2017-06-28T06:37:52.288Z,56.23
2017-06-28T06:38:32.738Z,56.32
2017-06-28T06:39:13.195Z,56.23
2017-06-28T06:39:53.659Z,56.13
2017-06-28T06:40:34.116Z,56.13
2017-06-28T06:41:14.578Z,56.51
2017-06-28T06:41:55.048Z,56.41
2017-06-28T06:42:35.486Z,56.13
2017-06-28T06:43:15.944Z,56.13
2017-06-28T06:43:56.398Z,56.41
2017-06-28T06:44:36.861Z,56.41
2017-06-28T06:45:17.318Z,56.1
2017-06-28T06:45:57.790Z,56.13
2017-06-28T06:46:38.247Z,56.1
2017-06-28T06:47:18.711Z,56.13
2017-06-28T06:47:59.172Z,56.23
2017-06-28T06:48:39.631Z,56.13
2017-06-28T06:49:20.090Z,56.13
2017-06-28T06:50:00.549Z,56.1
2017-06-28T06:50:41.017Z,56.23
2017-06-28T06:51:21.473Z,56.13
2017-06-28T06:52:01.931Z,56.51
2017-06-28T06:52:42.388Z,56.51
2017-06-28T06:53:22.845Z,56.32
2017-06-28T06:54:03.306Z,56.23
2017-06-28T06:54:43.768Z,56.49
2017-06-28T06:55:24.224Z,56.29
2017-06-28T06:56:04.679Z,56.51
2017-06-28T06:56:45.136Z,56.23
2017-06-28T06:57:25.585Z,55.93
2017-06-28T06:58:06.050Z,55.93
2017-06-28T06:58:46.495Z,56.32
2017-06-28T06:59:26.957Z,55.83
2017-06-28T07:00:07.415Z,56.41
2017-06-28T07:00:47.863Z,55.81
2017-06-28T07:01:28.322Z,55.71
2017-06-28T07:02:08.782Z,55.93
2017-06-28T07:02:49.241Z,56.32
2017-06-28T07:03:29.700Z,55.74
2017-06-28T07:04:10.163Z,55.83
2017-06-28T07:04:50.621Z,56.13
2017-06-28T07:05:31.082Z,55.93
2017-06-28T07:06:11.534Z,55.93
2017-06-28T07:06:51.995Z,55.93
2017-06-28T07:07:32.438Z,56.13
2017-06-28T07:08:12.907Z,56.13
2017-06-28T07:08:53.366Z,55.93
2017-06-28T07:09:33.833Z,56.03
2017-06-28T07:10:14.293Z,56.03
2017-06-28T07:10:54.756Z,55.93
2017-06-28T07:11:35.211Z,55.93
2017-06-28T07:12:15.662Z,55.93
2017-06-28T07:12:56.123Z,55.93
2017-06-28T07:13:36.562Z,55.83
2017-06-28T07:14:17.022Z,55.93
2017-06-28T07:14:57.482Z,55.81
2017-06-28T07:15:37.937Z,56.13
2017-06-28T07:16:18.410Z,56.13
2017-06-28T07:16:58.866Z,56.13
2017-06-28T07:17:39.324Z,56.03
2017-06-28T07:18:19.778Z,55.93
2017-06-28T07:19:00.234Z,55.93
2017-06-28T07:19:40.693Z,55.83
2017-06-28T07:20:21.146Z,55.93
2017-06-28T07:21:01.599Z,55.83
2017-06-28T07:21:42.059Z,55.93
2017-06-28T07:22:22.521Z,55.54
2017-06-28T07:23:02.989Z,55.64
2017-06-28T07:23:43.448Z,55.83
2017-06-28T07:24:23.906Z,55.54
2017-06-28T07:25:04.365Z,55.64
2017-06-28T07:25:44.823Z,55.64
2017-06-28T07:26:25.283Z,55.93
2017-06-28T07:27:05.736Z,55.83
2017-06-28T07:27:46.192Z,55.74
2017-06-28T07:28:26.641Z,55.71
2017-06-28T07:29:07.103Z,55.93
2017-06-28T07:29:47.562Z,55.93
2017-06-28T07:30:28.022Z,55.64
2017-06-28T07:31:08.480Z,55.64
2017-06-28T07:31:48.934Z,55.74
2017-06-28T07:32:29.392Z,55.93
2017-06-28T07:33:09.851Z,56.03
2017-06-28T07:33:50.308Z,55.93
2017-06-28T07:34:30.768Z,55.93
2017-06-28T07:35:11.433Z,55.83
2017-06-28T07:35:51.856Z,55.83
2017-06-28T07:36:32.321Z,56.1
2017-06-28T07:37:12.779Z,56.13
2017-06-28T07:37:53.240Z,56.13
2017-06-28T07:38:33.698Z,55.93
2017-06-28T07:39:14.154Z,55.93
2017-06-28T07:39:54.617Z,56.03
2017-06-28T07:40:35.097Z,55.93
2017-06-28T07:41:15.545Z,55.9
2017-06-28T07:41:56.006Z,55.93
2017-06-28T07:42:36.465Z,55.93
2017-06-28T07:43:16.923Z,55.93
2017-06-28T07:43:57.381Z,55.9
2017-06-28T07:44:37.841Z,55.9
2017-06-28T07:45:18.297Z,55.9
2017-06-28T07:45:58.756Z,55.9
2017-06-28T07:46:39.214Z,55.93
2017-06-28T07:47:19.677Z,55.93
2017-06-28T07:48:00.134Z,55.93
2017-06-28T07:48:40.596Z,55.64
2017-06-28T07:49:21.057Z,55.93
2017-06-28T07:50:01.538Z,55.9
2017-06-28T07:50:41.997Z,55.93
2017-06-28T07:51:22.457Z,55.71
2017-06-28T07:52:02.915Z,55.93
2017-06-28T07:52:43.378Z,55.74
2017-06-28T07:53:23.845Z,56.03
2017-06-28T07:54:04.307Z,56.13
2017-06-28T07:54:44.765Z,56
2017-06-28T07:55:25.223Z,55.93
2017-06-28T07:56:05.684Z,56.03
2017-06-28T07:56:46.141Z,56
2017-06-28T07:57:26.600Z,56.1
2017-06-28T07:58:07.056Z,56.1
2017-06-28T07:58:47.515Z,55.9
2017-06-28T07:59:27.974Z,56.1
2017-06-28T08:00:08.435Z,56.03
2017-06-28T08:00:48.894Z,56.03
2017-06-28T08:01:29.357Z,56.03
2017-06-28T08:02:09.818Z,56.03
2017-06-28T08:02:50.274Z,56.13
2017-06-28T08:03:30.734Z,55.83
2017-06-28T08:04:11.197Z,55.93
2017-06-28T08:04:51.657Z,55.93
2017-06-28T08:05:32.115Z,55.64
2017-06-28T08:06:12.574Z,55.71
2017-06-28T08:06:53.037Z,55.62
2017-06-28T08:07:33.495Z,55.93
2017-06-28T08:08:13.955Z,55.64
2017-06-28T08:08:54.417Z,55.93
2017-06-28T08:09:34.869Z,55.81
2017-06-28T08:10:15.324Z,55.74
2017-06-28T08:10:55.785Z,55.93
2017-06-28T08:11:36.239Z,55.81
2017-06-28T08:12:16.701Z,55.83
2017-06-28T08:12:57.161Z,55.74
2017-06-28T08:13:37.619Z,55.74
2017-06-28T08:14:18.083Z,55.83
2017-06-28T08:14:58.543Z,55.64
2017-06-28T08:15:38.987Z,55.83
2017-06-28T08:16:19.451Z,55.93
2017-06-28T08:16:59.911Z,56.13
2017-06-28T08:17:40.359Z,55.9
2017-06-28T08:18:20.824Z,55.93
2017-06-28T08:19:01.286Z,55.93
2017-06-28T08:19:41.744Z,56.13
2017-06-28T08:20:22.201Z,56.13
2017-06-28T08:21:02.662Z,55.93
2017-06-28T08:21:43.120Z,55.93
2017-06-28T08:22:23.583Z,55.93
2017-06-28T08:23:04.044Z,55.9
2017-06-28T08:23:44.505Z,56.13
2017-06-28T08:24:24.957Z,55.93
2017-06-28T08:25:05.418Z,55.93
2017-06-28T08:25:45.881Z,55.93
2017-06-28T08:26:26.339Z,55.93
2017-06-28T08:27:06.801Z,56.13
2017-06-28T08:27:47.257Z,55.74
2017-06-28T08:28:27.714Z,56.13
2017-06-28T08:29:08.178Z,55.83
2017-06-28T08:29:48.639Z,55.74
2017-06-28T08:30:29.101Z,55.93
2017-06-28T08:31:09.582Z,56.13
2017-06-28T08:31:50.044Z,55.74
2017-06-28T08:32:30.506Z,56.03
2017-06-28T08:33:10.967Z,55.93
2017-06-28T08:33:51.425Z,55.93
2017-06-28T08:34:31.885Z,56.13
2017-06-28T08:35:12.345Z,56.13
2017-06-28T08:35:52.806Z,55.93
2017-06-28T08:36:33.263Z,55.83
2017-06-28T08:37:13.720Z,55.93
2017-06-28T08:37:54.190Z,55.9
2017-06-28T08:38:34.644Z,55.93
2017-06-28T08:39:15.104Z,56.23
2017-06-28T08:39:55.574Z,55.83
2017-06-28T08:40:36.028Z,56.13
2017-06-28T08:41:16.482Z,56.1
2017-06-28T08:41:56.945Z,56.13
2017-06-28T08:42:37.410Z,55.93
2017-06-28T08:43:17.864Z,55.83
2017-06-28T08:43:58.325Z,55.93
2017-06-28T08:44:38.777Z,55.93
2017-06-28T08:45:19.233Z,56.23
2017-06-28T08:45:59.751Z,56.13
2017-06-28T08:46:40.214Z,56.1